sensor_id;sensor_type;location;lat;lon;timestamp;pressure;altitude;pressure_sealevel;temperature;humidity
13954;BME280;7049;49.444;8.522;2023-05-19T00:04:10;-11160.47;;;-3.47;46.18
13954;BME280;7049;49.444;8.522;2023-05-19T00:09:14;-11160.47;;;-3.47;46.71
13954;BME280;7049;49.444;8.522;2023-05-19T00:14:17;-11160.47;;;-3.47;47.46
13954;BME280;7049;49.444;8.522;2023-05-19T00:19:19;-11160.47;;;-3.47;47.83
13954;BME280;7049;49.444;8.522;2023-05-19T00:24:21;-11160.47;;;-3.47;48.70
13954;BME280;7049;49.444;8.522;2023-05-19T00:29:26;-11160.47;;;-3.47;49.65
13954;BME280;7049;49.444;8.522;2023-05-19T00:34:27;-11160.47;;;-3.47;50.65
13954;BME280;7049;49.444;8.522;2023-05-19T00:39:29;-11160.47;;;-3.47;51.35
13954;BME280;7049;49.444;8.522;2023-05-19T00:44:31;-11160.47;;;-3.47;50.32
13954;BME280;7049;49.444;8.522;2023-05-19T00:49:33;-11160.47;;;-3.47;50.34
13954;BME280;7049;49.444;8.522;2023-05-19T00:54:35;-11160.47;;;-3.47;49.32
13954;BME280;7049;49.444;8.522;2023-05-19T00:59:38;-11160.47;;;-3.47;49.09
13954;BME280;7049;49.444;8.522;2023-05-19T01:04:40;-11160.47;;;-3.47;50.00
13954;BME280;7049;49.444;8.522;2023-05-19T01:09:43;-11160.47;;;-3.47;50.52
13954;BME280;7049;49.444;8.522;2023-05-19T01:14:46;-11160.47;;;-3.47;50.78
13954;BME280;7049;49.444;8.522;2023-05-19T01:19:53;-11160.47;;;-3.47;50.73
13954;BME280;7049;49.444;8.522;2023-05-19T01:25:17;-11160.47;;;-3.47;50.96
13954;BME280;7049;49.444;8.522;2023-05-19T01:30:29;-11160.47;;;-3.47;51.25
13954;BME280;7049;49.444;8.522;2023-05-19T01:35:34;-11160.47;;;-3.47;51.67
13954;BME280;7049;49.444;8.522;2023-05-19T01:40:37;-11160.47;;;-3.47;51.83
13954;BME280;7049;49.444;8.522;2023-05-19T01:45:40;-11160.47;;;-3.47;52.06
13954;BME280;7049;49.444;8.522;2023-05-19T01:50:43;-11160.47;;;-3.47;52.11
13954;BME280;7049;49.444;8.522;2023-05-19T01:55:46;-11160.47;;;-3.47;51.89
13954;BME280;7049;49.444;8.522;2023-05-19T02:00:57;-11160.47;;;-3.47;52.31
13954;BME280;7049;49.444;8.522;2023-05-19T02:06:12;-11160.47;;;-3.47;52.50
13954;BME280;7049;49.444;8.522;2023-05-19T02:11:22;-11160.47;;;-3.47;52.27
13954;BME280;7049;49.444;8.522;2023-05-19T02:16:27;-11160.47;;;-3.47;52.33
13954;BME280;7049;49.444;8.522;2023-05-19T02:21:29;-11160.47;;;-3.47;53.08
13954;BME280;7049;49.444;8.522;2023-05-19T02:26:31;-11160.47;;;-3.47;53.70
13954;BME280;7049;49.444;8.522;2023-05-19T02:31:34;-11160.47;;;-3.47;54.06
13954;BME280;7049;49.444;8.522;2023-05-19T02:36:37;-11160.47;;;-3.47;54.92
13954;BME280;7049;49.444;8.522;2023-05-19T02:41:40;-11160.47;;;-3.47;55.21
13954;BME280;7049;49.444;8.522;2023-05-19T02:46:43;-11160.47;;;-3.47;55.38
13954;BME280;7049;49.444;8.522;2023-05-19T02:51:44;-11160.47;;;-3.47;55.93
13954;BME280;7049;49.444;8.522;2023-05-19T02:56:46;-11160.47;;;-3.47;56.18
13954;BME280;7049;49.444;8.522;2023-05-19T03:01:49;-11160.47;;;-3.47;56.02
13954;BME280;7049;49.444;8.522;2023-05-19T03:06:51;-11160.47;;;-3.47;56.41
13954;BME280;7049;49.444;8.522;2023-05-19T03:11:53;-11160.47;;;-3.47;57.10
13954;BME280;7049;49.444;8.522;2023-05-19T03:16:56;-11160.47;;;-3.47;57.33
13954;BME280;7049;49.444;8.522;2023-05-19T03:21:58;-11160.47;;;-3.47;57.75
13954;BME280;7049;49.444;8.522;2023-05-19T03:27:00;-11160.47;;;-3.47;58.30
13954;BME280;7049;49.444;8.522;2023-05-19T03:32:03;-11160.47;;;-3.47;58.31
13954;BME280;7049;49.444;8.522;2023-05-19T03:37:07;-11160.47;;;-3.47;58.84
13954;BME280;7049;49.444;8.522;2023-05-19T03:42:10;-11160.47;;;-3.47;59.09
13954;BME280;7049;49.444;8.522;2023-05-19T03:47:12;-11160.47;;;-3.47;59.71
13954;BME280;7049;49.444;8.522;2023-05-19T03:52:14;-11160.47;;;-3.47;60.11
13954;BME280;7049;49.444;8.522;2023-05-19T03:57:16;-11160.47;;;-3.47;59.93
13954;BME280;7049;49.444;8.522;2023-05-19T04:02:18;-11160.47;;;-3.47;60.42
13954;BME280;7049;49.444;8.522;2023-05-19T04:07:20;-11160.47;;;-3.47;60.23
13954;BME280;7049;49.444;8.522;2023-05-19T04:12:21;-11160.47;;;-3.47;60.76
13954;BME280;7049;49.444;8.522;2023-05-19T04:17:24;-11160.47;;;-3.47;60.39
13954;BME280;7049;49.444;8.522;2023-05-19T04:22:26;-11160.47;;;-3.47;60.19
13954;BME280;7049;49.444;8.522;2023-05-19T04:27:27;-11160.47;;;-3.47;60.96
13954;BME280;7049;49.444;8.522;2023-05-19T04:32:32;-11160.47;;;-3.47;60.93
13954;BME280;7049;49.444;8.522;2023-05-19T04:37:33;-11160.47;;;-3.47;60.81
13954;BME280;7049;49.444;8.522;2023-05-19T04:42:36;-11160.47;;;-3.47;61.43
13954;BME280;7049;49.444;8.522;2023-05-19T04:47:41;-11160.47;;;-3.47;61.27
13954;BME280;7049;49.444;8.522;2023-05-19T04:52:43;-11160.47;;;-3.47;61.14
13954;BME280;7049;49.444;8.522;2023-05-19T04:57:45;-11160.47;;;-3.47;61.32
13954;BME280;7049;49.444;8.522;2023-05-19T05:02:48;-11160.47;;;-3.47;61.55
13954;BME280;7049;49.444;8.522;2023-05-19T05:07:50;-11160.47;;;-3.47;61.34
13954;BME280;7049;49.444;8.522;2023-05-19T05:12:53;-11160.47;;;-3.47;61.21
13954;BME280;7049;49.444;8.522;2023-05-19T05:17:59;-11160.47;;;-3.47;61.11
13954;BME280;7049;49.444;8.522;2023-05-19T05:23:01;-11160.47;;;-3.47;60.68
13954;BME280;7049;49.444;8.522;2023-05-19T05:28:03;-11160.47;;;-3.47;60.74
13954;BME280;7049;49.444;8.522;2023-05-19T05:33:06;-11160.47;;;-3.47;59.51
13954;BME280;7049;49.444;8.522;2023-05-19T05:38:08;-11160.47;;;-3.47;60.03
13954;BME280;7049;49.444;8.522;2023-05-19T05:43:10;-11160.47;;;-3.47;60.50
13954;BME280;7049;49.444;8.522;2023-05-19T05:48:15;-11160.47;;;-3.47;58.04
13954;BME280;7049;49.444;8.522;2023-05-19T05:53:18;-11160.47;;;-3.47;58.60
13954;BME280;7049;49.444;8.522;2023-05-19T05:58:20;-11160.47;;;-3.47;58.73
13954;BME280;7049;49.444;8.522;2023-05-19T06:03:23;-11160.47;;;-3.47;58.35
13954;BME280;7049;49.444;8.522;2023-05-19T06:08:24;-11160.47;;;-3.47;57.80
13954;BME280;7049;49.444;8.522;2023-05-19T06:13:26;-11160.47;;;-3.47;56.71
13954;BME280;7049;49.444;8.522;2023-05-19T06:18:29;-11160.47;;;-3.47;55.32
13954;BME280;7049;49.444;8.522;2023-05-19T06:23:30;-11160.47;;;-3.47;54.13
13954;BME280;7049;49.444;8.522;2023-05-19T06:28:32;-11160.47;;;-3.47;52.62
13954;BME280;7049;49.444;8.522;2023-05-19T06:33:35;-11160.47;;;-3.47;51.04
13954;BME280;7049;49.444;8.522;2023-05-19T06:38:44;-11160.47;;;-3.47;49.67
13954;BME280;7049;49.444;8.522;2023-05-19T06:43:45;-11160.47;;;-3.47;49.73
13954;BME280;7049;49.444;8.522;2023-05-19T06:48:48;-11160.47;;;-3.47;49.29
13954;BME280;7049;49.444;8.522;2023-05-19T06:53:50;-11160.47;;;-3.47;48.44
13954;BME280;7049;49.444;8.522;2023-05-19T06:58:51;-11160.47;;;-3.47;46.90
13954;BME280;7049;49.444;8.522;2023-05-19T07:03:54;-11160.47;;;-3.47;47.06
13954;BME280;7049;49.444;8.522;2023-05-19T07:08:56;-11160.47;;;-3.47;45.75
13954;BME280;7049;49.444;8.522;2023-05-19T07:13:57;-11160.47;;;-3.47;44.89
13954;BME280;7049;49.444;8.522;2023-05-19T07:19:02;-11160.47;;;-3.47;43.83
13954;BME280;7049;49.444;8.522;2023-05-19T07:24:06;-11160.47;;;-3.47;43.57
13954;BME280;7049;49.444;8.522;2023-05-19T07:29:07;-11160.47;;;-3.47;43.10
13954;BME280;7049;49.444;8.522;2023-05-19T07:34:10;-11160.47;;;-3.47;42.62
13954;BME280;7049;49.444;8.522;2023-05-19T07:39:12;-11160.47;;;-3.47;41.67
13954;BME280;7049;49.444;8.522;2023-05-19T07:44:13;-11160.47;;;-3.47;40.81
13954;BME280;7049;49.444;8.522;2023-05-19T07:49:16;-11160.47;;;-3.47;40.28
13954;BME280;7049;49.444;8.522;2023-05-19T07:54:19;-11160.47;;;-3.47;39.89
13954;BME280;7049;49.444;8.522;2023-05-19T07:59:20;-11160.47;;;-3.47;39.54
13954;BME280;7049;49.444;8.522;2023-05-19T08:04:23;-11160.47;;;-3.47;37.86
13954;BME280;7049;49.444;8.522;2023-05-19T08:09:24;-11160.47;;;-3.47;37.05
13954;BME280;7049;49.444;8.522;2023-05-19T08:14:26;-11160.47;;;-3.47;36.37
13954;BME280;7049;49.444;8.522;2023-05-19T08:19:29;-11160.47;;;-3.47;35.92
13954;BME280;7049;49.444;8.522;2023-05-19T08:24:30;-11160.47;;;-3.47;36.22
13954;BME280;7049;49.444;8.522;2023-05-19T08:29:32;-11160.47;;;-3.47;36.12
13954;BME280;7049;49.444;8.522;2023-05-19T08:34:35;-11160.47;;;-3.47;35.82
13954;BME280;7049;49.444;8.522;2023-05-19T08:39:37;-11160.47;;;-3.47;34.94
13954;BME280;7049;49.444;8.522;2023-05-19T08:44:38;-11160.47;;;-3.47;34.55
13954;BME280;7049;49.444;8.522;2023-05-19T08:49:45;-11160.47;;;-3.47;34.39
13954;BME280;7049;49.444;8.522;2023-05-19T08:54:52;-11160.47;;;-3.47;34.00
13954;BME280;7049;49.444;8.522;2023-05-19T08:59:54;-11160.47;;;-3.47;32.65
13954;BME280;7049;49.444;8.522;2023-05-19T09:04:58;-11160.47;;;-3.47;32.54
13954;BME280;7049;49.444;8.522;2023-05-19T09:09:59;-11160.47;;;-3.47;31.97
13954;BME280;7049;49.444;8.522;2023-05-19T09:15:01;-11160.47;;;-3.47;31.44
13954;BME280;7049;49.444;8.522;2023-05-19T09:20:06;-11160.47;;;-3.47;31.31
13954;BME280;7049;49.444;8.522;2023-05-19T09:25:17;-11160.47;;;-3.47;30.82
13954;BME280;7049;49.444;8.522;2023-05-19T09:30:19;-11160.47;;;-3.47;29.94
13954;BME280;7049;49.444;8.522;2023-05-19T09:35:22;-11160.47;;;-3.47;30.25
13954;BME280;7049;49.444;8.522;2023-05-19T09:40:26;-11160.47;;;-3.47;29.67
13954;BME280;7049;49.444;8.522;2023-05-19T09:45:29;-11160.47;;;-3.47;29.79
13954;BME280;7049;49.444;8.522;2023-05-19T09:50:32;-11160.47;;;-3.47;29.75
13954;BME280;7049;49.444;8.522;2023-05-19T09:55:35;-11160.47;;;-3.47;29.11
13954;BME280;7049;49.444;8.522;2023-05-19T10:00:38;-11160.47;;;-3.47;29.30
13954;BME280;7049;49.444;8.522;2023-05-19T10:05:43;-11160.47;;;-3.47;29.34
13954;BME280;7049;49.444;8.522;2023-05-19T10:10:46;-11160.47;;;-3.47;29.20
13954;BME280;7049;49.444;8.522;2023-05-19T10:15:49;-11160.47;;;-3.47;29.96
13954;BME280;7049;49.444;8.522;2023-05-19T10:20:53;-11160.47;;;-3.47;29.41
13954;BME280;7049;49.444;8.522;2023-05-19T10:25:59;-11160.47;;;-3.47;28.89
13954;BME280;7049;49.444;8.522;2023-05-19T10:31:06;-11160.47;;;-3.47;29.36
13954;BME280;7049;49.444;8.522;2023-05-19T10:36:26;-11160.47;;;-3.47;28.88
13954;BME280;7049;49.444;8.522;2023-05-19T10:41:37;-11160.47;;;-3.47;28.44
13954;BME280;7049;49.444;8.522;2023-05-19T10:46:42;-11160.47;;;-3.47;28.83
13954;BME280;7049;49.444;8.522;2023-05-19T10:51:45;-11160.47;;;-3.47;28.77
13954;BME280;7049;49.444;8.522;2023-05-19T10:56:47;-11160.47;;;-3.47;28.68
13954;BME280;7049;49.444;8.522;2023-05-19T11:01:48;-11160.47;;;-3.47;28.37
13954;BME280;7049;49.444;8.522;2023-05-19T11:06:51;-11160.47;;;-3.47;28.14
13954;BME280;7049;49.444;8.522;2023-05-19T11:11:53;-11160.47;;;-3.47;27.86
13954;BME280;7049;49.444;8.522;2023-05-19T11:16:57;-11160.47;;;-3.47;28.19
13954;BME280;7049;49.444;8.522;2023-05-19T11:22:09;-11160.47;;;-3.47;28.43
13954;BME280;7049;49.444;8.522;2023-05-19T11:27:23;-11160.47;;;-3.47;28.05
13954;BME280;7049;49.444;8.522;2023-05-19T11:32:26;-11160.47;;;-3.47;28.18
13954;BME280;7049;49.444;8.522;2023-05-19T11:37:31;-11160.47;;;-3.47;27.73
13954;BME280;7049;49.444;8.522;2023-05-19T11:42:34;-11160.47;;;-3.47;28.08
13954;BME280;7049;49.444;8.522;2023-05-19T11:47:36;-11160.47;;;-3.47;27.98
13954;BME280;7049;49.444;8.522;2023-05-19T11:52:43;-11160.47;;;-3.47;28.04
13954;BME280;7049;49.444;8.522;2023-05-19T11:57:50;-11160.47;;;-3.47;28.45
13954;BME280;7049;49.444;8.522;2023-05-19T12:02:52;-11160.47;;;-3.47;28.40
13954;BME280;7049;49.444;8.522;2023-05-19T12:07:55;-11160.47;;;-3.47;28.80
13954;BME280;7049;49.444;8.522;2023-05-19T12:12:56;-11160.47;;;-3.47;29.01
13954;BME280;7049;49.444;8.522;2023-05-19T12:17:59;-11160.47;;;-3.47;29.03
13954;BME280;7049;49.444;8.522;2023-05-19T12:23:02;-11160.47;;;-3.47;29.64
13954;BME280;7049;49.444;8.522;2023-05-19T12:28:04;-11160.47;;;-3.47;29.73
13954;BME280;7049;49.444;8.522;2023-05-19T12:33:07;-11160.47;;;-3.47;29.63
13954;BME280;7049;49.444;8.522;2023-05-19T12:38:10;-11160.47;;;-3.47;29.81
13954;BME280;7049;49.444;8.522;2023-05-19T12:43:18;-11160.47;;;-3.47;30.00
13954;BME280;7049;49.444;8.522;2023-05-19T12:48:21;-11160.47;;;-3.47;30.17
13954;BME280;7049;49.444;8.522;2023-05-19T12:53:25;-11160.47;;;-3.47;29.73
13954;BME280;7049;49.444;8.522;2023-05-19T12:58:26;-11160.47;;;-3.47;29.90
13954;BME280;7049;49.444;8.522;2023-05-19T13:03:28;-11160.47;;;-3.47;30.02
13954;BME280;7049;49.444;8.522;2023-05-19T13:08:30;-11160.47;;;-3.47;29.84
13954;BME280;7049;49.444;8.522;2023-05-19T13:13:32;-11160.47;;;-3.47;30.05
13954;BME280;7049;49.444;8.522;2023-05-19T13:18:34;-11160.47;;;-3.47;30.63
13954;BME280;7049;49.444;8.522;2023-05-19T13:23:38;-11160.47;;;-3.47;31.30
13954;BME280;7049;49.444;8.522;2023-05-19T13:28:40;-11160.47;;;-3.47;31.52
13954;BME280;7049;49.444;8.522;2023-05-19T13:33:41;-11160.47;;;-3.47;31.60
13954;BME280;7049;49.444;8.522;2023-05-19T13:38:44;-11160.47;;;-3.47;31.66
13954;BME280;7049;49.444;8.522;2023-05-19T13:43:47;-11160.47;;;-3.47;32.00
13954;BME280;7049;49.444;8.522;2023-05-19T13:48:48;-11160.47;;;-3.47;32.10
13954;BME280;7049;49.444;8.522;2023-05-19T13:53:51;-11160.47;;;-3.47;31.87
13954;BME280;7049;49.444;8.522;2023-05-19T13:58:53;-11160.47;;;-3.47;31.94
13954;BME280;7049;49.444;8.522;2023-05-19T14:03:54;-11160.47;;;-3.47;32.26
13954;BME280;7049;49.444;8.522;2023-05-19T14:08:57;-11160.47;;;-3.47;32.77
13954;BME280;7049;49.444;8.522;2023-05-19T14:13:59;-11160.47;;;-3.47;32.76
13954;BME280;7049;49.444;8.522;2023-05-19T14:19:02;-11160.47;;;-3.47;32.80
13954;BME280;7049;49.444;8.522;2023-05-19T14:24:05;-11160.47;;;-3.47;32.77
13954;BME280;7049;49.444;8.522;2023-05-19T14:29:06;-11160.47;;;-3.47;32.57
13954;BME280;7049;49.444;8.522;2023-05-19T14:34:08;-11160.47;;;-3.47;32.23
13954;BME280;7049;49.444;8.522;2023-05-19T14:39:11;-11160.47;;;-3.47;32.37
13954;BME280;7049;49.444;8.522;2023-05-19T14:44:12;-11160.47;;;-3.47;32.49
13954;BME280;7049;49.444;8.522;2023-05-19T14:49:13;-11160.47;;;-3.47;32.62
13954;BME280;7049;49.444;8.522;2023-05-19T14:54:16;-11160.47;;;-3.47;32.50
13954;BME280;7049;49.444;8.522;2023-05-19T14:59:18;-11160.47;;;-3.47;32.27
13954;BME280;7049;49.444;8.522;2023-05-19T15:04:20;-11160.47;;;-3.47;32.58
13954;BME280;7049;49.444;8.522;2023-05-19T15:09:23;-11160.47;;;-3.47;32.79
13954;BME280;7049;49.444;8.522;2023-05-19T15:14:25;-11160.47;;;-3.47;32.80
13954;BME280;7049;49.444;8.522;2023-05-19T15:19:26;-11160.47;;;-3.47;31.67
13954;BME280;7049;49.444;8.522;2023-05-19T15:24:29;-11160.47;;;-3.47;32.53
13954;BME280;7049;49.444;8.522;2023-05-19T15:29:30;-11160.47;;;-3.47;32.93
13954;BME280;7049;49.444;8.522;2023-05-19T15:34:32;-11160.47;;;-3.47;33.23
13954;BME280;7049;49.444;8.522;2023-05-19T15:39:35;-11160.47;;;-3.47;33.50
13954;BME280;7049;49.444;8.522;2023-05-19T15:44:36;-11160.47;;;-3.47;33.46
13954;BME280;7049;49.444;8.522;2023-05-19T15:49:38;-11160.47;;;-3.47;33.45
13954;BME280;7049;49.444;8.522;2023-05-19T15:54:40;-11160.47;;;-3.47;33.91
13954;BME280;7049;49.444;8.522;2023-05-19T15:59:51;-11160.47;;;-3.47;33.81
13954;BME280;7049;49.444;8.522;2023-05-19T16:04:59;-11160.47;;;-3.47;34.06
13954;BME280;7049;49.444;8.522;2023-05-19T16:10:17;-11160.47;;;-3.47;33.76
13954;BME280;7049;49.444;8.522;2023-05-19T16:15:22;-11160.47;;;-3.47;33.95
13954;BME280;7049;49.444;8.522;2023-05-19T16:20:30;-11160.47;;;-3.47;34.03
13954;BME280;7049;49.444;8.522;2023-05-19T16:25:37;-11160.47;;;-3.47;34.29
13954;BME280;7049;49.444;8.522;2023-05-19T16:30:39;-11160.47;;;-3.47;34.41
13954;BME280;7049;49.444;8.522;2023-05-19T16:35:44;-11160.47;;;-3.47;34.36
13954;BME280;7049;49.444;8.522;2023-05-19T16:40:48;-11160.47;;;-3.47;34.68
13954;BME280;7049;49.444;8.522;2023-05-19T16:45:51;-11160.47;;;-3.47;35.38
13954;BME280;7049;49.444;8.522;2023-05-19T16:50:55;-11160.47;;;-3.47;35.86
13954;BME280;7049;49.444;8.522;2023-05-19T16:55:58;-11160.47;;;-3.47;35.94
13954;BME280;7049;49.444;8.522;2023-05-19T17:01:00;-11160.47;;;-3.47;35.84
13954;BME280;7049;49.444;8.522;2023-05-19T17:06:02;-11160.47;;;-3.47;36.07
13954;BME280;7049;49.444;8.522;2023-05-19T17:11:05;-11160.47;;;-3.47;35.89
13954;BME280;7049;49.444;8.522;2023-05-19T17:16:06;-11160.47;;;-3.47;35.97
13954;BME280;7049;49.444;8.522;2023-05-19T17:21:08;-11160.47;;;-3.47;35.59
13954;BME280;7049;49.444;8.522;2023-05-19T17:26:10;-11160.47;;;-3.47;35.61
13954;BME280;7049;49.444;8.522;2023-05-19T17:31:13;-11160.47;;;-3.47;35.70
13954;BME280;7049;49.444;8.522;2023-05-19T17:36:15;-11160.47;;;-3.47;35.59
13954;BME280;7049;49.444;8.522;2023-05-19T17:41:18;-11160.47;;;-3.47;35.39
13954;BME280;7049;49.444;8.522;2023-05-19T17:46:20;-11160.47;;;-3.47;35.63
13954;BME280;7049;49.444;8.522;2023-05-19T17:51:22;-11160.47;;;-3.47;35.63
13954;BME280;7049;49.444;8.522;2023-05-19T17:56:26;-11160.47;;;-3.47;36.27
13954;BME280;7049;49.444;8.522;2023-05-19T18:01:30;-11160.47;;;-3.47;36.34
13954;BME280;7049;49.444;8.522;2023-05-19T18:06:35;-11160.47;;;-3.47;36.58
13954;BME280;7049;49.444;8.522;2023-05-19T18:11:38;-11160.47;;;-3.47;36.27
13954;BME280;7049;49.444;8.522;2023-05-19T18:16:40;-11160.47;;;-3.47;36.42
13954;BME280;7049;49.444;8.522;2023-05-19T18:21:41;-11160.47;;;-3.47;36.49
13954;BME280;7049;49.444;8.522;2023-05-19T18:26:44;-11160.47;;;-3.47;36.68
13954;BME280;7049;49.444;8.522;2023-05-19T18:31:46;-11160.47;;;-3.47;37.04
13954;BME280;7049;49.444;8.522;2023-05-19T18:36:47;-11160.47;;;-3.47;37.23
13954;BME280;7049;49.444;8.522;2023-05-19T18:41:50;-11160.47;;;-3.47;37.40
13954;BME280;7049;49.444;8.522;2023-05-19T18:46:51;-11160.47;;;-3.47;37.65
13954;BME280;7049;49.444;8.522;2023-05-19T18:51:53;-11160.47;;;-3.47;37.79
13954;BME280;7049;49.444;8.522;2023-05-19T18:56:55;-11160.47;;;-3.47;37.72
13954;BME280;7049;49.444;8.522;2023-05-19T19:01:59;-11160.47;;;-3.47;37.71
13954;BME280;7049;49.444;8.522;2023-05-19T19:07:00;-11160.47;;;-3.47;37.68
13954;BME280;7049;49.444;8.522;2023-05-19T19:12:03;-11160.47;;;-3.47;38.06
13954;BME280;7049;49.444;8.522;2023-05-19T19:17:05;-11160.47;;;-3.47;38.31
13954;BME280;7049;49.444;8.522;2023-05-19T19:22:06;-11160.47;;;-3.47;38.87
13954;BME280;7049;49.444;8.522;2023-05-19T19:27:09;-11160.47;;;-3.47;38.91
13954;BME280;7049;49.444;8.522;2023-05-19T19:32:10;-11160.47;;;-3.47;38.91
13954;BME280;7049;49.444;8.522;2023-05-19T19:37:15;-11160.47;;;-3.47;38.94
13954;BME280;7049;49.444;8.522;2023-05-19T19:42:20;-11160.47;;;-3.47;38.55
13954;BME280;7049;49.444;8.522;2023-05-19T19:47:26;-11160.47;;;-3.47;38.53
13954;BME280;7049;49.444;8.522;2023-05-19T19:52:37;-11160.47;;;-3.47;38.59
13954;BME280;7049;49.444;8.522;2023-05-19T19:57:45;-11160.47;;;-3.47;38.67
13954;BME280;7049;49.444;8.522;2023-05-19T20:02:52;-11160.47;;;-3.47;38.41
13954;BME280;7049;49.444;8.522;2023-05-19T20:08:01;-11160.47;;;-3.47;38.46
13954;BME280;7049;49.444;8.522;2023-05-19T20:31:14;-11160.47;;;-3.47;38.55
13954;BME280;7049;49.444;8.522;2023-05-19T20:36:42;-11160.47;;;-3.47;38.49
13954;BME280;7049;49.444;8.522;2023-05-19T20:47:47;-11160.47;;;-3.47;38.18
13954;BME280;7049;49.444;8.522;2023-05-19T21:05:12;-11160.47;;;-3.47;38.99
13954;BME280;7049;49.444;8.522;2023-05-19T21:16:19;-11160.47;;;-3.47;38.91
13954;BME280;7049;49.444;8.522;2023-05-19T21:21:39;-11160.47;;;-3.47;39.12
13954;BME280;7049;49.444;8.522;2023-05-19T21:32:26;-11160.47;;;-3.47;39.50
13954;BME280;7049;49.444;8.522;2023-05-19T21:37:38;-11160.47;;;-3.47;39.76
13954;BME280;7049;49.444;8.522;2023-05-19T21:43:24;-11160.47;;;-3.47;39.96
13954;BME280;7049;49.444;8.522;2023-05-19T22:06:19;-11160.47;;;-3.47;40.21
13954;BME280;7049;49.444;8.522;2023-05-19T22:11:20;-11160.47;;;-3.47;40.01
13954;BME280;7049;49.444;8.522;2023-05-19T22:16:22;-11160.47;;;-3.47;39.98
13954;BME280;7049;49.444;8.522;2023-05-19T22:21:28;-11160.47;;;-3.47;40.15
13954;BME280;7049;49.444;8.522;2023-05-19T22:26:30;-11160.47;;;-3.47;40.27
13954;BME280;7049;49.444;8.522;2023-05-19T22:31:31;-11160.47;;;-3.47;40.24
13954;BME280;7049;49.444;8.522;2023-05-19T22:36:48;-11160.47;;;-3.47;40.56
13954;BME280;7049;49.444;8.522;2023-05-19T22:41:50;-11160.47;;;-3.47;40.75
13954;BME280;7049;49.444;8.522;2023-05-19T22:47:00;-11160.47;;;-3.47;41.12
13954;BME280;7049;49.444;8.522;2023-05-19T22:52:08;-11160.47;;;-3.47;41.09
13954;BME280;7049;49.444;8.522;2023-05-19T22:57:09;-11160.47;;;-3.47;41.45
13954;BME280;7049;49.444;8.522;2023-05-19T23:02:34;-11160.47;;;-3.47;41.57
13954;BME280;7049;49.444;8.522;2023-05-19T23:07:39;-11160.47;;;-3.47;41.97
13954;BME280;7049;49.444;8.522;2023-05-19T23:12:41;-11160.47;;;-3.47;42.56
13954;BME280;7049;49.444;8.522;2023-05-19T23:17:42;-11160.47;;;-3.47;42.42
13954;BME280;7049;49.444;8.522;2023-05-19T23:22:53;-11160.47;;;-3.47;43.27
13954;BME280;7049;49.444;8.522;2023-05-19T23:27:54;-11160.47;;;-3.47;43.50
13954;BME280;7049;49.444;8.522;2023-05-19T23:32:56;-11160.47;;;-3.47;44.33
13954;BME280;7049;49.444;8.522;2023-05-19T23:38:02;-11160.47;;;-3.47;44.93
13954;BME280;7049;49.444;8.522;2023-05-19T23:43:03;-11160.47;;;-3.47;45.43
13954;BME280;7049;49.444;8.522;2023-05-19T23:48:05;-11160.47;;;-3.47;46.26
13954;BME280;7049;49.444;8.522;2023-05-19T23:53:08;-11160.47;;;-3.47;46.90
13954;BME280;7049;49.444;8.522;2023-05-19T23:58:09;-11160.47;;;-3.47;47.25
